UPS214 KOMA-KMSP
Flight info
| Callsign | UPS214 |
|---|---|
| Flight time | 0h 46m |
| Altitude | 33000 |
| Route | ROKKK NITZR4 |
| Aircraft | B748/H-VGDW/C |
Departure
| Time | 2026-05-07 15:02 |
|---|---|
| Airport | Eppley Airfield (KOMA) |
Arrival
| Time | 2026-05-07 15:49 |
|---|---|
| Airport | Minneapolis–Saint Paul International Airport / Wold–Chamberlain Field (KMSP) |
| Time | Latitude | Longitude | Altitude | Speed | Heading |
|---|---|---|---|---|---|
| 2026-05-07 14:36 | 41.30902 | -95.90696 | 991 ft | 0 kts | 144° |
| 2026-05-07 14:46 | 41.30907 | -95.90700 | 998 ft | 3 kts | 144° |
| 2026-05-07 14:47 | 41.30922 | -95.90715 | 991 ft | 3 kts | 144° |
| 2026-05-07 14:47 | 41.30937 | -95.90730 | 998 ft | 3 kts | 144° |
| 2026-05-07 14:47 | 41.30948 | -95.90740 | 994 ft | 0 kts | 144° |
| 2026-05-07 14:57 | 41.30947 | -95.90739 | 991 ft | 2 kts | 144° |
| 2026-05-07 14:57 | 41.30939 | -95.90725 | 998 ft | 1 kts | 120° |
| 2026-05-07 14:58 | 41.30939 | -95.90714 | 1000 ft | 1 kts | 94° |
| 2026-05-07 14:58 | 41.30942 | -95.90706 | 1000 ft | 1 kts | 71° |
| 2026-05-07 14:58 | 41.30949 | -95.90695 | 995 ft | 4 kts | 53° |
| 2026-05-07 14:58 | 41.30989 | -95.90630 | 999 ft | 13 kts | 44° |
| 2026-05-07 14:59 | 41.31065 | -95.90613 | 993 ft | 7 kts | 333° |
| 2026-05-07 14:59 | 41.31117 | -95.90666 | 997 ft | 14 kts | 322° |
| 2026-05-07 14:59 | 41.31211 | -95.90765 | 998 ft | 19 kts | 325° |
| 2026-05-07 14:59 | 41.31299 | -95.90764 | 998 ft | 7 kts | 41° |
| 2026-05-07 15:00 | 41.31318 | -95.90725 | 998 ft | 7 kts | 57° |
| 2026-05-07 15:00 | 41.31354 | -95.90652 | 995 ft | 11 kts | 57° |
| 2026-05-07 15:00 | 41.31364 | -95.90611 | 999 ft | 4 kts | 86° |
| 2026-05-07 15:00 | 41.31359 | -95.90591 | 998 ft | 1 kts | 115° |
| 2026-05-07 15:01 | 41.31355 | -95.90587 | 996 ft | 1 kts | 132° |
| 2026-05-07 15:01 | 41.31348 | -95.90580 | 1000 ft | 3 kts | 143° |
| 2026-05-07 15:01 | 41.31314 | -95.90547 | 998 ft | 9 kts | 143° |
| 2026-05-07 15:01 | 41.31249 | -95.90481 | 996 ft | 14 kts | 143° |
| 2026-05-07 15:02 | 41.31014 | -95.90256 | 997 ft | 85 kts | 145° |
| 2026-05-07 15:02 | 41.30286 | -95.89568 | 997 ft | 169 kts | 144° |
| 2026-05-07 15:02 | 41.29181 | -95.88528 | 1269 ft | 208 kts | 143° |
| 2026-05-07 15:02 | 41.28429 | -95.86793 | 1732 ft | 224 kts | 99° |
| 2026-05-07 15:03 | 41.28575 | -95.84741 | 2308 ft | 237 kts | 69° |
| 2026-05-07 15:03 | 41.29567 | -95.83008 | 2833 ft | 242 kts | 34° |
| 2026-05-07 15:03 | 41.31132 | -95.82161 | 3176 ft | 249 kts | 2° |
| 2026-05-07 15:03 | 41.32896 | -95.81910 | 3500 ft | 263 kts | 2° |
| 2026-05-07 15:04 | 41.34713 | -95.81383 | 4056 ft | 272 kts | 12° |
| 2026-05-07 15:04 | 41.36479 | -95.80463 | 4687 ft | 281 kts | 22° |
| 2026-05-07 15:04 | 41.38149 | -95.79048 | 5592 ft | 288 kts | 37° |
| 2026-05-07 15:04 | 41.39585 | -95.77151 | 6534 ft | 293 kts | 45° |
| 2026-05-07 15:05 | 41.40924 | -95.75106 | 7422 ft | 295 kts | 46° |
| 2026-05-07 15:05 | 41.42331 | -95.73094 | 8268 ft | 297 kts | 42° |
| 2026-05-07 15:05 | 41.43803 | -95.71156 | 9110 ft | 299 kts | 41° |
| 2026-05-07 15:05 | 41.45286 | -95.69189 | 9942 ft | 302 kts | 42° |
| 2026-05-07 15:06 | 41.46771 | -95.67162 | 10511 ft | 312 kts | 41° |
| 2026-05-07 15:06 | 41.48332 | -95.65032 | 10895 ft | 330 kts | 41° |
| 2026-05-07 15:06 | 41.49988 | -95.62785 | 11226 ft | 349 kts | 41° |
| 2026-05-07 15:06 | 41.51719 | -95.60432 | 11748 ft | 360 kts | 41° |
| 2026-05-07 15:07 | 41.53461 | -95.58052 | 12457 ft | 366 kts | 41° |
| 2026-05-07 15:07 | 41.55250 | -95.55612 | 13214 ft | 370 kts | 40° |
| 2026-05-07 15:07 | 41.57087 | -95.53109 | 13951 ft | 374 kts | 40° |
| 2026-05-07 15:07 | 41.58917 | -95.50612 | 14628 ft | 378 kts | 39° |
| 2026-05-07 15:08 | 41.60737 | -95.48124 | 15292 ft | 381 kts | 39° |
| 2026-05-07 15:08 | 41.62600 | -95.45575 | 15977 ft | 385 kts | 39° |
| 2026-05-07 15:08 | 41.64476 | -95.43009 | 16707 ft | 388 kts | 38° |
| 2026-05-07 15:08 | 41.66368 | -95.40418 | 17448 ft | 391 kts | 38° |
| 2026-05-07 15:09 | 41.68278 | -95.37799 | 18192 ft | 395 kts | 37° |
| 2026-05-07 15:09 | 41.70206 | -95.35152 | 18830 ft | 398 kts | 37° |
| 2026-05-07 15:09 | 41.72145 | -95.32489 | 19454 ft | 402 kts | 37° |
| 2026-05-07 15:09 | 41.74105 | -95.29794 | 20086 ft | 406 kts | 37° |
| 2026-05-07 15:10 | 41.76083 | -95.27072 | 20714 ft | 410 kts | 37° |
| 2026-05-07 15:10 | 41.78084 | -95.24316 | 21315 ft | 413 kts | 37° |
| 2026-05-07 15:10 | 41.80096 | -95.21541 | 21922 ft | 417 kts | 36° |
| 2026-05-07 15:10 | 41.82125 | -95.18740 | 22520 ft | 421 kts | 36° |
| 2026-05-07 15:11 | 41.84174 | -95.15910 | 23090 ft | 424 kts | 36° |
| 2026-05-07 15:11 | 41.86237 | -95.13058 | 23638 ft | 428 kts | 36° |
| 2026-05-07 15:11 | 41.88321 | -95.10172 | 24082 ft | 431 kts | 36° |
| 2026-05-07 15:11 | 41.90420 | -95.07264 | 24534 ft | 435 kts | 36° |
| 2026-05-07 15:12 | 41.92527 | -95.04341 | 24972 ft | 438 kts | 36° |
| 2026-05-07 15:12 | 41.94626 | -95.01427 | 25391 ft | 441 kts | 36° |
| 2026-05-07 15:12 | 41.96768 | -94.98449 | 25825 ft | 445 kts | 36° |
| 2026-05-07 15:12 | 41.98922 | -94.95452 | 26250 ft | 448 kts | 36° |
| 2026-05-07 15:13 | 42.01097 | -94.92423 | 26716 ft | 451 kts | 36° |
| 2026-05-07 15:13 | 42.02574 | -94.90364 | 27041 ft | 453 kts | 36° |
| 2026-05-07 15:13 | 42.04751 | -94.87328 | 27480 ft | 457 kts | 36° |
| 2026-05-07 15:13 | 42.06966 | -94.84234 | 27902 ft | 461 kts | 36° |
| 2026-05-07 15:14 | 42.09197 | -94.81113 | 28319 ft | 464 kts | 36° |
| 2026-05-07 15:14 | 42.11442 | -94.77970 | 28729 ft | 467 kts | 36° |
| 2026-05-07 15:14 | 42.13703 | -94.74803 | 29144 ft | 471 kts | 36° |
| 2026-05-07 15:14 | 42.15981 | -94.71607 | 29570 ft | 474 kts | 36° |
| 2026-05-07 15:15 | 42.18276 | -94.68385 | 29991 ft | 477 kts | 36° |
| 2026-05-07 15:15 | 42.20581 | -94.65144 | 30352 ft | 481 kts | 36° |
| 2026-05-07 15:15 | 42.22907 | -94.61869 | 30697 ft | 484 kts | 36° |
| 2026-05-07 15:15 | 42.25217 | -94.58615 | 31038 ft | 487 kts | 36° |
| 2026-05-07 15:16 | 42.27564 | -94.55304 | 31375 ft | 490 kts | 36° |
| 2026-05-07 15:16 | 42.29925 | -94.51968 | 31690 ft | 493 kts | 36° |
| 2026-05-07 15:16 | 42.32303 | -94.48606 | 32024 ft | 496 kts | 36° |
| 2026-05-07 15:16 | 42.34691 | -94.45225 | 32344 ft | 499 kts | 36° |
| 2026-05-07 15:17 | 42.37092 | -94.41822 | 32650 ft | 502 kts | 37° |
| 2026-05-07 15:17 | 42.39508 | -94.38393 | 32945 ft | 505 kts | 37° |
| 2026-05-07 15:17 | 42.44378 | -94.31465 | 32970 ft | 508 kts | 37° |
| 2026-05-07 15:18 | 42.49238 | -94.24540 | 32976 ft | 507 kts | 37° |
| 2026-05-07 15:18 | 42.54098 | -94.17601 | 32969 ft | 508 kts | 37° |
| 2026-05-07 15:19 | 42.58958 | -94.10638 | 32975 ft | 508 kts | 37° |
| 2026-05-07 15:19 | 42.64083 | -94.04240 | 32972 ft | 494 kts | 27° |
| 2026-05-07 15:20 | 42.69541 | -93.98578 | 32973 ft | 493 kts | 27° |
| 2026-05-07 15:20 | 42.74994 | -93.92896 | 32963 ft | 494 kts | 27° |
| 2026-05-07 15:21 | 42.80447 | -93.87206 | 32954 ft | 494 kts | 27° |
| 2026-05-07 15:21 | 42.85870 | -93.81535 | 32967 ft | 495 kts | 27° |
| 2026-05-07 15:22 | 42.91336 | -93.75802 | 32969 ft | 495 kts | 28° |
| 2026-05-07 15:22 | 42.96803 | -93.70058 | 32967 ft | 496 kts | 28° |
| 2026-05-07 15:23 | 43.02272 | -93.64298 | 32975 ft | 497 kts | 28° |
| 2026-05-07 15:23 | 43.07744 | -93.58521 | 32976 ft | 497 kts | 28° |
| 2026-05-07 15:24 | 43.13212 | -93.52733 | 32979 ft | 496 kts | 28° |
| 2026-05-07 15:24 | 43.18667 | -93.46949 | 32962 ft | 496 kts | 29° |
| 2026-05-07 15:25 | 43.24132 | -93.41139 | 32966 ft | 497 kts | 29° |
| 2026-05-07 15:25 | 43.26967 | -93.38559 | 32993 ft | 480 kts | 18° |
| 2026-05-07 15:25 | 43.29976 | -93.36905 | 32968 ft | 454 kts | 5° |
| 2026-05-07 15:26 | 43.33005 | -93.36208 | 32756 ft | 430 kts | 353° |
| 2026-05-07 15:26 | 43.35922 | -93.36467 | 32450 ft | 410 kts | 341° |
| 2026-05-07 15:26 | 43.38579 | -93.37635 | 32123 ft | 394 kts | 328° |
| 2026-05-07 15:26 | 43.40822 | -93.39587 | 31783 ft | 382 kts | 315° |
| 2026-05-07 15:27 | 43.42587 | -93.42239 | 31423 ft | 374 kts | 302° |
| 2026-05-07 15:27 | 43.43777 | -93.45402 | 31038 ft | 370 kts | 297° |
| 2026-05-07 15:27 | 43.45167 | -93.48348 | 30673 ft | 367 kts | 311° |
| 2026-05-07 15:27 | 43.47103 | -93.50626 | 30309 ft | 368 kts | 326° |
| 2026-05-07 15:28 | 43.49436 | -93.52092 | 29931 ft | 372 kts | 338° |
| 2026-05-07 15:28 | 43.51938 | -93.52927 | 29005 ft | 372 kts | 346° |
| 2026-05-07 15:28 | 43.54532 | -93.53168 | 28118 ft | 376 kts | 355° |
| 2026-05-07 15:28 | 43.57149 | -93.52865 | 27262 ft | 378 kts | 0° |
| 2026-05-07 15:29 | 43.59751 | -93.52394 | 26461 ft | 375 kts | 0° |
| 2026-05-07 15:29 | 43.62324 | -93.52061 | 25695 ft | 368 kts | 357° |
| 2026-05-07 15:29 | 43.64873 | -93.51920 | 24944 ft | 364 kts | 356° |
| 2026-05-07 15:29 | 43.67403 | -93.51758 | 24218 ft | 362 kts | 359° |
| 2026-05-07 15:30 | 43.69908 | -93.51512 | 23517 ft | 361 kts | 360° |
| 2026-05-07 15:30 | 43.72415 | -93.51260 | 23081 ft | 360 kts | 359° |
| 2026-05-07 15:30 | 43.74907 | -93.51045 | 22681 ft | 358 kts | 359° |
| 2026-05-07 15:30 | 43.77382 | -93.50840 | 22195 ft | 355 kts | 359° |
| 2026-05-07 15:31 | 43.79805 | -93.50626 | 21656 ft | 353 kts | 360° |
| 2026-05-07 15:31 | 43.82253 | -93.50404 | 21117 ft | 351 kts | 360° |
| 2026-05-07 15:31 | 43.84682 | -93.50188 | 20609 ft | 349 kts | 359° |
| 2026-05-07 15:31 | 43.87093 | -93.49976 | 20113 ft | 347 kts | 359° |
| 2026-05-07 15:32 | 43.89494 | -93.49764 | 19627 ft | 344 kts | 360° |
| 2026-05-07 15:32 | 43.91884 | -93.49552 | 19143 ft | 343 kts | 360° |
| 2026-05-07 15:32 | 43.94258 | -93.49340 | 18689 ft | 341 kts | 360° |
| 2026-05-07 15:32 | 43.96622 | -93.49125 | 18237 ft | 339 kts | 2° |
| 2026-05-07 15:33 | 43.98978 | -93.48802 | 17772 ft | 340 kts | 0° |
| 2026-05-07 15:33 | 44.01333 | -93.48576 | 17317 ft | 339 kts | 360° |
| 2026-05-07 15:33 | 44.03690 | -93.48341 | 16865 ft | 339 kts | 1° |
| 2026-05-07 15:33 | 44.06045 | -93.48060 | 16417 ft | 339 kts | 1° |
| 2026-05-07 15:34 | 44.08393 | -93.47775 | 15971 ft | 339 kts | 1° |
| 2026-05-07 15:34 | 44.10742 | -93.47508 | 15524 ft | 338 kts | 1° |
| 2026-05-07 15:34 | 44.13059 | -93.47249 | 15074 ft | 338 kts | 1° |
| 2026-05-07 15:34 | 44.15402 | -93.46980 | 14635 ft | 338 kts | 1° |
| 2026-05-07 15:35 | 44.17721 | -93.46704 | 14188 ft | 331 kts | 3° |
| 2026-05-07 15:35 | 44.19931 | -93.45894 | 13763 ft | 328 kts | 17° |
| 2026-05-07 15:35 | 44.22043 | -93.44744 | 13283 ft | 323 kts | 17° |
| 2026-05-07 15:35 | 44.24119 | -93.43574 | 12869 ft | 322 kts | 17° |
| 2026-05-07 15:36 | 44.26198 | -93.42418 | 12437 ft | 321 kts | 17° |
| 2026-05-07 15:36 | 44.28247 | -93.41288 | 12010 ft | 311 kts | 17° |
| 2026-05-07 15:36 | 44.30228 | -93.40187 | 11605 ft | 302 kts | 17° |
| 2026-05-07 15:36 | 44.32155 | -93.39108 | 11207 ft | 295 kts | 17° |
| 2026-05-07 15:37 | 44.34037 | -93.38054 | 10826 ft | 288 kts | 17° |
| 2026-05-07 15:37 | 44.35882 | -93.37023 | 10457 ft | 282 kts | 17° |
| 2026-05-07 15:37 | 44.37637 | -93.35847 | 10085 ft | 278 kts | 22° |
| 2026-05-07 15:37 | 44.39353 | -93.34633 | 9723 ft | 277 kts | 21° |
| 2026-05-07 15:38 | 44.41078 | -93.33430 | 9362 ft | 273 kts | 21° |
| 2026-05-07 15:38 | 44.42730 | -93.32234 | 8998 ft | 263 kts | 22° |
| 2026-05-07 15:38 | 44.44326 | -93.31070 | 8637 ft | 255 kts | 22° |
| 2026-05-07 15:38 | 44.45888 | -93.29944 | 8309 ft | 249 kts | 22° |
| 2026-05-07 15:39 | 44.47363 | -93.28780 | 7993 ft | 246 kts | 36° |
| 2026-05-07 15:39 | 44.48460 | -93.26927 | 7981 ft | 254 kts | 51° |
| 2026-05-07 15:39 | 44.49445 | -93.24892 | 7973 ft | 252 kts | 52° |
| 2026-05-07 15:39 | 44.50422 | -93.22811 | 7970 ft | 262 kts | 52° |
| 2026-05-07 15:40 | 44.51465 | -93.20627 | 7987 ft | 271 kts | 52° |
| 2026-05-07 15:40 | 44.52525 | -93.18416 | 8017 ft | 274 kts | 52° |
| 2026-05-07 15:40 | 44.53591 | -93.16190 | 8028 ft | 276 kts | 52° |
| 2026-05-07 15:40 | 44.54655 | -93.13960 | 8033 ft | 275 kts | 52° |
| 2026-05-07 15:41 | 44.55724 | -93.11724 | 7865 ft | 276 kts | 52° |
| 2026-05-07 15:41 | 44.56783 | -93.09502 | 7663 ft | 272 kts | 52° |
| 2026-05-07 15:41 | 44.57835 | -93.07295 | 7476 ft | 272 kts | 52° |
| 2026-05-07 15:41 | 44.58881 | -93.05100 | 7310 ft | 266 kts | 53° |
| 2026-05-07 15:42 | 44.59880 | -93.02995 | 7119 ft | 253 kts | 53° |
| 2026-05-07 15:42 | 44.60943 | -93.01101 | 6987 ft | 245 kts | 33° |
| 2026-05-07 15:42 | 44.62319 | -92.99734 | 7002 ft | 240 kts | 21° |
| 2026-05-07 15:42 | 44.63906 | -92.99231 | 6949 ft | 233 kts | 355° |
| 2026-05-07 15:43 | 44.65507 | -92.99344 | 6586 ft | 228 kts | 351° |
| 2026-05-07 15:43 | 44.67068 | -92.99520 | 6256 ft | 228 kts | 352° |
| 2026-05-07 15:43 | 44.68646 | -92.99662 | 5933 ft | 227 kts | 353° |
| 2026-05-07 15:43 | 44.70223 | -92.99782 | 5622 ft | 227 kts | 353° |
| 2026-05-07 15:44 | 44.71796 | -92.99905 | 5320 ft | 225 kts | 354° |
| 2026-05-07 15:44 | 44.73353 | -93.00030 | 5035 ft | 221 kts | 354° |
| 2026-05-07 15:44 | 44.74863 | -93.00152 | 4724 ft | 214 kts | 354° |
| 2026-05-07 15:44 | 44.76334 | -93.00271 | 4431 ft | 209 kts | 355° |
| 2026-05-07 15:45 | 44.77766 | -93.00405 | 4132 ft | 204 kts | 349° |
| 2026-05-07 15:45 | 44.78992 | -93.01238 | 3885 ft | 198 kts | 314° |
| 2026-05-07 15:45 | 44.79819 | -93.02788 | 3622 ft | 196 kts | 303° |
| 2026-05-07 15:45 | 44.80524 | -93.04364 | 3350 ft | 189 kts | 301° |
| 2026-05-07 15:46 | 44.81815 | -93.07344 | 2993 ft | 164 kts | 301° |
| 2026-05-07 15:46 | 44.82431 | -93.08765 | 2793 ft | 166 kts | 301° |
| 2026-05-07 15:46 | 44.83027 | -93.10146 | 2585 ft | 160 kts | 301° |
| 2026-05-07 15:47 | 44.83589 | -93.11438 | 2368 ft | 155 kts | 302° |
| 2026-05-07 15:47 | 44.84143 | -93.12722 | 2151 ft | 153 kts | 301° |
| 2026-05-07 15:47 | 44.84699 | -93.13986 | 1932 ft | 152 kts | 302° |
| 2026-05-07 15:47 | 44.85251 | -93.15260 | 1689 ft | 152 kts | 301° |
| 2026-05-07 15:48 | 44.85805 | -93.16541 | 1458 ft | 152 kts | 301° |
| 2026-05-07 15:48 | 44.86363 | -93.17831 | 1249 ft | 155 kts | 301° |
| 2026-05-07 15:48 | 44.86924 | -93.19132 | 1033 ft | 156 kts | 301° |
| 2026-05-07 15:48 | 44.87490 | -93.20438 | 836 ft | 155 kts | 301° |
| 2026-05-07 15:49 | 44.88001 | -93.21611 | 824 ft | 116 kts | 301° |
| 2026-05-07 15:49 | 44.88260 | -93.22210 | 828 ft | 26 kts | 301° |
| 2026-05-07 15:49 | 44.88343 | -93.22411 | 827 ft | 20 kts | 290° |
| 2026-05-07 15:49 | 44.88319 | -93.22525 | 823 ft | 7 kts | 218° |
| 2026-05-07 15:50 | 44.88275 | -93.22579 | 826 ft | 10 kts | 223° |
| 2026-05-07 15:50 | 44.88219 | -93.22655 | 827 ft | 13 kts | 225° |
| 2026-05-07 15:50 | 44.88147 | -93.22757 | 827 ft | 17 kts | 225° |
| 2026-05-07 15:50 | 44.88055 | -93.22886 | 827 ft | 20 kts | 225° |
| 2026-05-07 15:51 | 44.88018 | -93.23018 | 827 ft | 8 kts | 287° |
| 2026-05-07 15:51 | 44.88039 | -93.23064 | 829 ft | 8 kts | 302° |
| 2026-05-07 15:51 | 44.88078 | -93.23152 | 824 ft | 14 kts | 302° |
| 2026-05-07 15:51 | 44.88133 | -93.23278 | 822 ft | 15 kts | 299° |
| 2026-05-07 15:52 | 44.88139 | -93.23331 | 826 ft | 1 kts | 250° |
| 2026-05-07 15:52 | 44.88135 | -93.23336 | 827 ft | 1 kts | 232° |
| 2026-05-07 15:52 | 44.88130 | -93.23339 | 831 ft | 1 kts | 213° |
| 2026-05-07 15:52 | 44.88119 | -93.23346 | 823 ft | 3 kts | 205° |
| 2026-05-07 15:53 | 44.88091 | -93.23369 | 824 ft | 0 kts | 210° |
| 2026-05-07 15:53 | 44.88085 | -93.23373 | 830 ft | 0 kts | 210° |